createdAt,value
2022-11-09T00:04:33.439Z,100175.00
2022-11-09T00:09:36.572Z,100170.00
2022-11-09T00:14:39.873Z,100169.20
2022-11-09T00:19:45.122Z,100169.80
2022-11-09T00:24:48.219Z,100170.00
2022-11-09T00:29:51.430Z,100175.20
2022-11-09T00:34:54.537Z,100176.80
2022-11-09T00:39:58.269Z,100168.80
2022-11-09T00:45:01.362Z,100172.80
2022-11-09T00:50:06.379Z,100162.60
2022-11-09T00:55:09.931Z,100164.00
2022-11-09T01:00:14.139Z,100168.80
2022-11-09T01:05:17.289Z,100164.80
2022-11-09T01:10:20.785Z,100154.00
2022-11-09T01:15:23.992Z,100163.60
2022-11-09T01:20:29.769Z,100166.20
2022-11-09T01:25:32.971Z,100168.20
2022-11-09T01:30:40.159Z,100153.60
2022-11-09T01:35:43.484Z,100160.60
2022-11-09T01:40:46.601Z,100165.20
2022-11-09T01:45:58.397Z,100162.00
2022-11-09T01:51:14.712Z,100158.00
2022-11-09T01:56:19.318Z,100152.80
2022-11-09T02:01:22.620Z,100156.20
2022-11-09T02:06:29.908Z,100160.40
2022-11-09T02:11:34.989Z,100155.20
2022-11-09T02:16:38.845Z,100153.60
2022-11-09T02:21:42.172Z,100147.80
2022-11-09T02:26:50.642Z,100148.40
2022-11-09T02:32:04.140Z,100144.60
2022-11-09T02:37:07.653Z,100145.20
2022-11-09T02:42:20.888Z,100148.40
2022-11-09T02:47:24.824Z,100138.40
2022-11-09T02:52:28.165Z,100137.20
2022-11-09T02:57:31.239Z,100132.40
2022-11-09T03:02:35.267Z,100135.80
2022-11-09T03:07:38.577Z,100131.80
2022-11-09T03:12:41.687Z,100122.00
2022-11-09T03:17:44.717Z,100130.00
2022-11-09T03:22:47.999Z,100142.60
2022-11-09T03:27:51.124Z,100130.80
2022-11-09T03:33:10.364Z,100125.40
2022-11-09T03:38:13.927Z,100129.20
2022-11-09T03:43:17.184Z,100131.80
2022-11-09T03:48:20.562Z,100122.60
2022-11-09T03:53:23.635Z,100140.00
2022-11-09T03:58:26.740Z,100132.00
2022-11-09T04:03:29.844Z,100106.40
2022-11-09T04:08:33.265Z,100116.80
2022-11-09T04:13:36.373Z,100112.40
2022-11-09T04:18:39.680Z,100105.00
2022-11-09T04:23:42.788Z,100112.40
2022-11-09T04:28:46.117Z,100111.80
2022-11-09T04:33:52.409Z,100111.40
2022-11-09T04:38:55.691Z,100116.80
2022-11-09T04:43:58.707Z,100113.20
2022-11-09T04:49:02.000Z,100128.40
2022-11-09T04:54:05.147Z,100126.00
2022-11-09T04:59:08.420Z,100116.00
2022-11-09T05:04:11.566Z,100113.20
2022-11-09T05:09:14.835Z,100098.20
2022-11-09T05:14:17.952Z,100114.20
2022-11-09T05:19:21.079Z,100112.80
2022-11-09T05:24:24.254Z,100116.60
2022-11-09T05:29:27.268Z,100110.60
2022-11-09T05:34:30.367Z,100085.60
2022-11-09T05:39:33.582Z,100087.20
2022-11-09T05:44:36.711Z,100094.40
2022-11-09T05:49:39.889Z,100105.20
2022-11-09T05:54:43.002Z,100096.20
2022-11-09T05:59:46.305Z,100117.60
2022-11-09T06:04:49.619Z,100125.20
2022-11-09T06:09:52.984Z,100130.20
2022-11-09T06:14:56.240Z,100137.40
2022-11-09T06:19:59.357Z,100140.80
2022-11-09T06:25:02.451Z,100129.60
2022-11-09T06:30:06.777Z,100134.40
2022-11-09T06:35:10.014Z,100114.60
2022-11-09T06:40:14.521Z,100124.40
2022-11-09T06:45:17.646Z,100127.20
2022-11-09T06:50:20.849Z,100119.60
2022-11-09T06:55:23.965Z,100114.00
2022-11-09T07:00:28.612Z,100115.20
2022-11-09T07:05:31.703Z,100119.80
2022-11-09T07:10:34.914Z,100113.40
2022-11-09T07:15:39.485Z,100109.40
2022-11-09T07:20:42.563Z,100128.40
2022-11-09T07:25:45.594Z,100120.40
2022-11-09T07:30:52.038Z,100123.80
2022-11-09T07:35:55.260Z,100119.40
2022-11-09T07:41:00.623Z,100101.40
2022-11-09T07:46:05.714Z,100087.00
2022-11-09T07:51:08.983Z,100081.60
2022-11-09T07:56:12.802Z,100086.80
2022-11-09T08:01:15.917Z,100091.20
2022-11-09T08:06:19.185Z,100102.60
2022-11-09T08:11:22.834Z,100103.80
2022-11-09T08:16:26.041Z,100107.20
2022-11-09T08:21:29.175Z,100097.80
2022-11-09T08:26:33.482Z,100109.40
2022-11-09T08:31:36.589Z,100108.40
2022-11-09T08:36:40.149Z,100110.40
2022-11-09T08:41:43.211Z,100116.20
2022-11-09T08:46:46.433Z,100130.80
2022-11-09T08:51:49.533Z,100122.40
2022-11-09T08:56:57.082Z,100123.80
2022-11-09T09:02:00.317Z,100126.40
2022-11-09T09:07:03.678Z,100136.40
2022-11-09T09:12:09.019Z,100143.00
2022-11-09T09:17:12.126Z,100138.60
2022-11-09T09:22:15.227Z,100129.60
2022-11-09T09:27:18.364Z,100127.80
2022-11-09T09:32:21.541Z,100140.00
2022-11-09T09:37:24.957Z,100123.80
2022-11-09T09:42:36.647Z,100125.00
2022-11-09T09:48:15.181Z,100123.60
2022-11-09T09:53:48.249Z,100117.80
2022-11-09T09:59:07.318Z,100114.80
2022-11-09T10:04:34.512Z,100116.40
2022-11-09T10:10:19.142Z,100125.40
2022-11-09T10:15:40.780Z,100112.40
2022-11-09T10:21:48.734Z,100099.40
2022-11-09T10:26:56.914Z,100091.40
2022-11-09T10:32:30.747Z,100085.60
2022-11-09T10:37:46.738Z,100078.80
2022-11-09T10:42:55.718Z,100079.80
2022-11-09T10:48:00.455Z,100085.20
2022-11-09T10:53:23.533Z,100099.00
2022-11-09T10:58:37.307Z,100096.00
2022-11-09T11:03:42.645Z,100090.40
2022-11-09T11:08:57.935Z,100093.00
2022-11-09T11:14:27.562Z,100100.40
2022-11-09T11:19:35.381Z,100098.20
2022-11-09T11:24:56.641Z,100106.00
2022-11-09T11:30:31.684Z,100101.80
2022-11-09T11:35:42.767Z,100084.40
2022-11-09T11:41:05.659Z,100079.60
2022-11-09T11:46:38.076Z,100068.20
2022-11-09T11:52:17.394Z,100060.40
2022-11-09T11:57:27.654Z,100077.00
2022-11-09T12:02:56.022Z,100072.40
2022-11-09T12:08:09.913Z,100067.40
2022-11-09T12:13:31.287Z,100067.80
2022-11-09T12:19:20.462Z,100066.60
2022-11-09T12:24:56.768Z,100079.00
2022-11-09T12:30:17.783Z,100086.60
2022-11-09T12:35:32.435Z,100092.40
2022-11-09T12:40:45.055Z,100077.20
2022-11-09T12:45:52.980Z,100069.00
2022-11-09T12:50:58.082Z,100070.40
2022-11-09T12:56:21.002Z,100072.80
2022-11-09T13:01:27.164Z,100073.40
2022-11-09T13:06:33.744Z,100080.60
2022-11-09T13:11:46.387Z,100087.40
2022-11-09T13:17:01.988Z,100102.80
2022-11-09T13:22:15.148Z,100097.60
2022-11-09T13:27:33.694Z,100102.40
2022-11-09T13:32:36.905Z,100094.40
2022-11-09T13:37:43.232Z,100097.60
2022-11-09T13:43:10.353Z,100116.00
2022-11-09T13:48:35.066Z,100110.00
2022-11-09T13:53:38.175Z,100104.60
2022-11-09T13:58:43.523Z,100115.00
2022-11-09T14:03:52.247Z,100109.60
2022-11-09T14:08:57.822Z,100107.40
2022-11-09T14:14:28.895Z,100104.40
2022-11-09T14:20:01.286Z,100098.40
2022-11-09T14:25:20.609Z,100102.20
2022-11-09T14:30:31.675Z,100110.20
2022-11-09T14:35:37.535Z,100111.60
2022-11-09T14:40:46.034Z,100100.20
2022-11-09T14:45:54.789Z,100079.00
2022-11-09T14:51:05.307Z,100100.40
2022-11-09T14:56:15.266Z,100115.20
2022-11-09T15:01:18.687Z,100110.00
2022-11-09T15:06:21.881Z,100093.60
2022-11-09T15:11:39.163Z,100124.60
2022-11-09T15:16:43.451Z,100131.40
2022-11-09T15:21:46.585Z,100140.00
2022-11-09T15:26:53.014Z,100130.20
2022-11-09T15:32:12.531Z,100138.60
2022-11-09T15:37:28.849Z,100131.00
2022-11-09T15:42:32.082Z,100140.80
2022-11-09T15:47:37.984Z,100130.80
2022-11-09T15:52:43.592Z,100120.00
2022-11-09T15:57:46.710Z,100124.60
2022-11-09T16:02:50.011Z,100139.00
2022-11-09T16:07:55.274Z,100156.60
2022-11-09T16:12:58.403Z,100158.60
2022-11-09T16:18:02.811Z,100159.60
2022-11-09T16:23:06.327Z,100156.80
2022-11-09T16:28:09.433Z,100163.40
2022-11-09T16:33:12.767Z,100165.60
2022-11-09T16:38:16.585Z,100161.80
2022-11-09T16:43:20.473Z,100165.80
2022-11-09T16:48:24.054Z,100156.40
2022-11-09T16:53:28.330Z,100157.00
2022-11-09T16:58:31.553Z,100155.20
2022-11-09T17:03:34.758Z,100159.20
2022-11-09T17:08:39.811Z,100152.20
2022-11-09T17:13:43.428Z,100146.60
2022-11-09T17:18:46.541Z,100138.00
2022-11-09T17:23:51.155Z,100128.40
2022-11-09T17:28:54.491Z,100133.60
2022-11-09T17:34:01.163Z,100137.40
2022-11-09T17:39:06.544Z,100130.60
2022-11-09T17:44:09.952Z,100130.80
2022-11-09T17:49:13.161Z,100131.80
2022-11-09T17:54:16.580Z,100122.60
2022-11-09T17:59:19.807Z,100113.20
2022-11-09T18:04:22.990Z,100127.40
2022-11-09T18:09:42.527Z,100133.60
2022-11-09T18:14:46.098Z,100131.60
2022-11-09T18:19:49.538Z,100136.80
2022-11-09T18:24:52.831Z,100131.80
2022-11-09T18:29:56.749Z,100137.00
2022-11-09T18:34:59.795Z,100142.60
2022-11-09T18:40:05.160Z,100140.40
2022-11-09T18:45:10.392Z,100147.00
2022-11-09T18:50:13.483Z,100145.60
2022-11-09T18:55:18.170Z,100151.60
2022-11-09T19:00:24.400Z,100142.60
2022-11-09T19:05:27.819Z,100146.80
2022-11-09T19:10:31.021Z,100149.00
2022-11-09T19:15:38.856Z,100154.20
2022-11-09T19:20:42.066Z,100145.20
2022-11-09T19:25:45.153Z,100135.40
2022-11-09T19:30:48.462Z,100145.60
2022-11-09T19:36:23.355Z,100154.80
2022-11-09T19:41:16.501Z,100167.80
2022-11-09T19:46:20.010Z,100173.20
2022-11-09T19:51:24.033Z,100181.00
2022-11-09T19:56:30.322Z,100189.60
2022-11-09T20:01:34.009Z,100187.20
2022-11-09T20:06:39.425Z,100182.20
2022-11-09T20:12:01.365Z,100176.20
2022-11-09T20:17:05.879Z,100176.60
2022-11-09T20:22:09.084Z,100178.20
2022-11-09T20:27:12.320Z,100177.20
2022-11-09T20:32:20.559Z,100178.20
2022-11-09T20:37:25.075Z,100175.60
2022-11-09T20:42:28.369Z,100176.60
2022-11-09T20:48:02.862Z,100171.60
2022-11-09T20:52:54.763Z,100170.20
2022-11-09T20:57:57.963Z,100176.20
2022-11-09T21:03:01.175Z,100174.00
2022-11-09T21:08:04.515Z,100182.20
2022-11-09T21:13:07.790Z,100174.20
2022-11-09T21:18:10.913Z,100178.00
2022-11-09T21:23:14.212Z,100182.00
2022-11-09T21:28:36.977Z,100182.80
2022-11-09T21:33:41.396Z,100184.00
2022-11-09T21:38:44.561Z,100175.20
2022-11-09T21:43:48.143Z,100173.00
2022-11-09T21:48:51.395Z,100171.40
2022-11-09T21:53:54.659Z,100175.40
2022-11-09T21:58:58.862Z,100179.00
2022-11-09T22:04:02.410Z,100177.60
2022-11-09T22:09:17.612Z,100177.60
2022-11-09T22:14:39.646Z,100173.60
2022-11-09T22:20:01.289Z,100172.40
2022-11-09T22:25:05.221Z,100171.60
2022-11-09T22:30:09.090Z,100175.60
2022-11-09T22:35:12.139Z,100167.60
2022-11-09T22:40:15.348Z,100167.60
2022-11-09T22:45:18.663Z,100167.80
2022-11-09T22:50:21.774Z,100177.00
2022-11-09T22:55:25.795Z,100179.00
2022-11-09T23:00:28.900Z,100189.80
2022-11-09T23:05:32.010Z,100188.20
2022-11-09T23:10:35.664Z,100189.40
2022-11-09T23:15:38.730Z,100180.60
2022-11-09T23:20:43.072Z,100167.40
2022-11-09T23:25:55.080Z,100166.40
2022-11-09T23:31:01.249Z,100155.80
2022-11-09T23:36:07.221Z,100149.80
2022-11-09T23:41:12.666Z,100159.80
2022-11-09T23:46:16.388Z,100165.60
2022-11-09T23:51:19.537Z,100172.40
2022-11-09T23:56:22.831Z,100169.40
